Time;durP1;ratioP1;P1;durP2;ratioP2;P2;SDS_P1;SDS_P2;PMS_P1;PMS_P2;Temp;Humidity;BMP_temperature;BMP_pressure;BME280_temperature;BME280_humidity;BME280_pressure;Samples;Min_cycle;Max_cycle;Signal;HPM_P1;HPM_P2
2021/12/08 00:00:28;;;;;;;2.40;1.08;;;;;;;5.92;100.00;99143.22;5224121;28;20492;-68
2021/12/08 00:03:01;;;;;;;2.50;1.10;;;;;;;5.83;100.00;99137.13;5222526;28;20029;-68
2021/12/08 00:05:32;;;;;;;6.70;1.30;;;;;;;5.75;100.00;99126.53;5223444;28;20025;-68
2021/12/08 00:08:05;;;;;;;4.90;1.15;;;;;;;5.69;100.00;99135.22;5223820;28;20037;-68
2021/12/08 00:13:08;;;;;;;5.00;1.10;;;;;;;5.59;100.00;99135.44;5223409;28;20035;-68
2021/12/08 00:15:43;;;;;;;3.63;1.15;;;;;;;5.60;100.00;99150.41;5213147;28;20025;-68
2021/12/08 00:18:17;;;;;;;6.50;1.50;;;;;;;5.67;100.00;99169.13;5223736;28;20112;-68
2021/12/08 00:20:51;;;;;;;4.10;1.42;;;;;;;5.69;100.00;99177.78;5222964;28;20055;-68
2021/12/08 00:23:22;;;;;;;5.00;1.42;;;;;;;5.76;100.00;99181.41;5223280;28;20489;-68
2021/12/08 00:25:53;;;;;;;5.88;3.17;;;;;;;5.80;100.00;99164.09;5222536;28;20041;-68
2021/12/08 00:28:24;;;;;;;7.32;1.65;;;;;;;5.82;100.00;99170.03;5223292;28;20021;-68
2021/12/08 00:30:57;;;;;;;5.78;1.60;;;;;;;5.85;100.00;99175.03;5222979;28;20123;-68
2021/12/08 00:33:29;;;;;;;2.25;1.45;;;;;;;5.87;100.00;99177.50;5222701;28;20063;-68
2021/12/08 00:36:02;;;;;;;12.85;2.58;;;;;;;5.88;100.00;99179.19;5222618;28;20029;-68
2021/12/08 00:38:33;;;;;;;6.93;2.28;;;;;;;5.89;100.00;99184.31;5223201;28;20037;-68
2021/12/08 00:41:04;;;;;;;3.42;1.33;;;;;;;5.89;100.00;99196.81;5222711;28;20405;-68
2021/12/08 00:43:35;;;;;;;8.18;1.73;;;;;;;5.87;100.00;99210.28;5223534;28;20066;-68
2021/12/08 00:46:05;;;;;;;4.32;1.50;;;;;;;5.85;100.00;99206.97;5222097;28;20446;-68
2021/12/08 00:48:36;;;;;;;5.18;1.75;;;;;;;5.83;100.00;99208.97;5222134;28;20040;-68
2021/12/08 00:51:07;;;;;;;11.05;1.58;;;;;;;5.81;100.00;99216.28;5222846;28;20036;-68
2021/12/08 00:53:37;;;;;;;8.80;2.85;;;;;;;5.85;100.00;99225.59;5222700;28;20031;-68
2021/12/08 00:56:09;;;;;;;10.88;2.53;;;;;;;5.85;100.00;99227.44;5222084;28;20033;-68
2021/12/08 00:58:40;;;;;;;9.43;2.33;;;;;;;5.95;100.00;99234.22;5222176;28;20112;-68
2021/12/08 01:01:12;;;;;;;11.95;1.77;;;;;;;6.00;100.00;99235.53;5222521;28;20079;-68
2021/12/08 01:03:45;;;;;;;5.32;2.20;;;;;;;6.01;100.00;99235.34;5222584;28;20102;-68
2021/12/08 01:06:17;;;;;;;11.65;1.58;;;;;;;6.02;100.00;99234.31;5222050;28;20021;-68
2021/12/08 01:08:47;;;;;;;10.02;2.13;;;;;;;6.02;100.00;99234.31;5222087;28;20025;-68
2021/12/08 01:11:20;;;;;;;9.88;1.60;;;;;;;6.05;100.00;99236.66;5221949;28;20024;-68
2021/12/08 01:13:51;;;;;;;10.10;1.58;;;;;;;6.06;100.00;99234.81;5222142;28;20053;-68
2021/12/08 01:16:22;;;;;;;8.35;1.50;;;;;;;6.09;100.00;99235.28;5221422;28;20520;-68
2021/12/08 01:18:52;;;;;;;15.38;2.90;;;;;;;6.15;100.00;99228.44;5222167;28;20021;-68
2021/12/08 01:21:23;;;;;;;9.63;1.50;;;;;;;6.19;100.00;99238.56;5221630;28;20040;-68
2021/12/08 01:23:53;;;;;;;13.73;3.75;;;;;;;6.19;100.00;99240.38;5222288;28;20021;-68
2021/12/08 01:26:25;;;;;;;12.82;2.40;;;;;;;6.21;100.00;99251.69;5221497;28;20056;-68
2021/12/08 01:28:57;;;;;;;7.35;1.52;;;;;;;6.22;100.00;99261.31;5221939;28;20036;-68
2021/12/08 01:31:28;;;;;;;8.32;1.88;;;;;;;6.25;100.00;99265.47;5221724;28;20056;-68
2021/12/08 01:33:58;;;;;;;10.15;2.10;;;;;;;6.27;100.00;99261.63;5221385;28;20196;-68
2021/12/08 01:36:29;;;;;;;6.40;2.00;;;;;;;6.28;100.00;99267.81;5221224;28;20533;-68
2021/12/08 01:38:59;;;;;;;9.88;1.77;;;;;;;6.28;100.00;99275.78;5221820;28;20025;-68
2021/12/08 01:41:31;;;;;;;7.00;1.83;;;;;;;6.31;100.00;99273.59;5221724;28;20035;-68
2021/12/08 01:46:54;;;;;;;11.68;2.28;;;;;;;6.28;100.00;99281.94;5221818;28;20068;-68
2021/12/08 01:49:24;;;;;;;7.95;2.10;;;;;;;6.16;100.00;99294.00;5221643;28;20099;-68
2021/12/08 01:51:55;;;;;;;10.52;1.70;;;;;;;6.12;100.00;99282.03;5221615;28;20163;-68
2021/12/08 01:54:25;;;;;;;10.38;2.70;;;;;;;6.10;100.00;99281.38;5221510;28;20656;-68
2021/12/08 01:56:57;;;;;;;15.40;2.13;;;;;;;6.07;100.00;99281.72;5220894;28;20056;-68
2021/12/08 01:59:27;;;;;;;4.78;1.60;;;;;;;6.04;100.00;99292.75;5220734;28;20039;-68
2021/12/08 02:01:58;;;;;;;8.50;1.33;;;;;;;6.01;100.00;99301.06;5220451;28;20021;-68
2021/12/08 02:04:28;;;;;;;5.80;1.40;;;;;;;6.03;100.00;99312.38;5221730;28;20373;-68
2021/12/08 02:07:00;;;;;;;5.35;1.80;;;;;;;5.97;100.00;99304.09;5221772;28;20021;-68
2021/12/08 02:09:31;;;;;;;4.45;1.75;;;;;;;5.94;100.00;99319.56;5221647;28;20024;-68
2021/12/08 02:12:02;;;;;;;10.05;1.33;;;;;;;5.93;100.00;99309.94;5221659;28;20025;-68
2021/12/08 02:14:34;;;;;;;6.85;1.50;;;;;;;5.93;100.00;99307.28;5211398;28;20044;-68
2021/12/08 02:17:10;;;;;;;9.75;1.25;;;;;;;6.00;100.00;99310.06;5221438;28;20039;-68
2021/12/08 02:19:40;;;;;;;5.55;1.20;;;;;;;6.02;100.00;99313.38;5221112;28;20439;-68
2021/12/08 02:22:11;;;;;;;10.73;1.50;;;;;;;6.01;100.00;99307.22;5221468;28;20521;-68
2021/12/08 02:24:53;;;;;;;11.30;1.55;;;;;;;5.99;100.00;99316.41;5221318;28;20496;-68
2021/12/08 02:27:24;;;;;;;10.52;1.42;;;;;;;5.99;100.00;99316.41;5221665;28;20100;-68
2021/12/08 02:30:00;;;;;;;6.97;1.17;;;;;;;6.01;100.00;99319.69;5221606;28;20025;-68
2021/12/08 02:46:46;;;;;;;11.10;2.10;;;;;;;5.89;100.00;99335.19;5210080;28;20037;-68
2021/12/08 02:49:20;;;;;;;9.20;1.48;;;;;;;5.89;100.00;99329.88;5221267;28;20028;-68
2021/12/08 02:51:51;;;;;;;6.72;1.98;;;;;;;5.84;100.00;99335.72;5221033;28;20028;-68
2021/12/08 02:54:22;;;;;;;7.47;1.73;;;;;;;5.86;100.00;99328.38;5220828;28;20151;-68
2021/12/08 02:57:02;;;;;;;6.28;1.20;;;;;;;5.82;100.00;99326.22;5221319;28;21831;-68
2021/12/08 02:59:34;;;;;;;13.80;1.48;;;;;;;5.86;100.00;99324.88;5220913;28;20033;-68
2021/12/08 03:02:06;;;;;;;7.10;1.42;;;;;;;5.81;100.00;99320.09;5220769;28;20036;-68
2021/12/08 03:04:37;;;;;;;7.93;1.25;;;;;;;5.77;100.00;99320.59;5220857;28;20059;-68
2021/12/08 03:07:08;;;;;;;9.48;1.33;;;;;;;5.69;100.00;99316.16;5221042;28;20017;-68
2021/12/08 03:09:43;;;;;;;5.35;0.88;;;;;;;5.54;100.00;99329.34;5220450;28;20120;-68
2021/12/08 03:12:13;;;;;;;5.43;1.00;;;;;;;5.42;100.00;99339.50;5223773;28;20536;-68
2021/12/08 03:14:44;;;;;;;7.82;1.13;;;;;;;5.36;100.00;99329.53;5224441;28;20035;-67
2021/12/08 03:17:15;;;;;;;10.27;1.30;;;;;;;5.35;100.00;99337.69;5225022;28;20036;-68
2021/12/08 03:19:46;;;;;;;6.18;1.38;;;;;;;5.27;100.00;99325.25;5225357;28;20075;-68
2021/12/08 03:22:17;;;;;;;5.78;1.35;;;;;;;5.26;100.00;99342.19;5224569;28;20021;-68
2021/12/08 03:24:50;;;;;;;11.38;1.10;;;;;;;5.28;100.00;99342.03;5224266;28;20034;-68
2021/12/08 03:27:27;;;;;;;4.63;0.95;;;;;;;5.18;100.00;99343.03;5225040;28;20024;-68
2021/12/08 03:30:11;;;;;;;4.72;1.10;;;;;;;5.17;100.00;99345.84;5224660;28;20378;-68
2021/12/08 03:32:41;;;;;;;8.18;1.50;;;;;;;5.16;100.00;99346.84;5224424;28;20025;-68
2021/12/08 03:35:15;;;;;;;12.60;1.33;;;;;;;5.26;100.00;99336.88;5224207;28;20082;-68
2021/12/08 03:37:47;;;;;;;4.80;1.02;;;;;;;5.28;100.00;99340.22;5224370;28;20352;-68
2021/12/08 03:40:21;;;;;;;4.07;1.05;;;;;;;5.30;100.00;99332.88;5224651;28;20543;-68
2021/12/08 03:42:55;;;;;;;8.90;1.35;;;;;;;5.29;100.00;99335.72;5218895;28;20036;-68
2021/12/08 03:45:34;;;;;;;7.88;1.10;;;;;;;5.25;100.00;99340.53;5203301;28;20024;-68
2021/12/08 03:48:09;;;;;;;5.13;1.33;;;;;;;5.13;100.00;99342.72;5224403;28;20075;-68
2021/12/08 03:50:42;;;;;;;7.80;1.20;;;;;;;5.10;100.00;99339.56;5224226;28;20029;-68
2021/12/08 03:53:15;;;;;;;8.65;1.23;;;;;;;5.06;100.00;99338.22;5224755;28;20112;-68
2021/12/08 03:55:49;;;;;;;7.05;1.40;;;;;;;5.00;100.00;99330.94;5223650;28;20067;-68
2021/12/08 03:58:20;;;;;;;10.85;2.00;;;;;;;4.96;100.00;99329.59;5224151;28;20156;-67
2021/12/08 04:00:53;;;;;;;10.18;1.77;;;;;;;4.90;100.00;99345.22;5222784;28;20032;-68
2021/12/08 04:03:26;;;;;;;14.23;1.88;;;;;;;4.95;100.00;99352.69;5224188;28;20053;-68
2021/12/08 04:06:01;;;;;;;8.82;1.45;;;;;;;4.91;100.00;99346.03;5223979;28;20028;-67
2021/12/08 04:08:42;;;;;;;12.52;2.17;;;;;;;4.92;100.00;99353.88;5224363;28;20467;-68
2021/12/08 04:11:13;;;;;;;9.82;1.50;;;;;;;4.86;100.00;99351.84;5224085;28;20378;-68
2021/12/08 04:13:55;;;;;;;15.38;1.95;;;;;;;4.87;100.00;99352.69;5223484;28;20312;-68
2021/12/08 04:16:32;;;;;;;8.35;1.75;;;;;;;4.82;100.00;99349.69;5222924;28;20129;-68
2021/12/08 04:19:06;;;;;;;7.22;1.58;;;;;;;4.77;100.00;99346.69;5224090;28;20103;-68
2021/12/08 04:21:38;;;;;;;9.70;1.77;;;;;;;4.74;100.00;99342.56;5223665;28;20671;-68
2021/12/08 04:24:09;;;;;;;11.65;1.83;;;;;;;4.65;100.00;99354.16;5222845;28;20029;-68
2021/12/08 04:26:50;;;;;;;12.73;2.17;;;;;;;4.65;100.00;99362.13;5223634;28;20024;-68
2021/12/08 04:29:33;;;;;;;11.15;1.92;;;;;;;4.65;100.00;99362.97;5223501;28;20094;-68
2021/12/08 04:32:06;;;;;;;9.98;2.15;;;;;;;4.66;100.00;99374.41;5223342;28;20112;-67
2021/12/08 04:34:39;;;;;;;14.20;2.50;;;;;;;4.57;100.00;99367.47;5223058;28;20106;-67
2021/12/08 04:37:19;;;;;;;9.95;1.48;;;;;;;4.57;100.00;99362.97;5222858;28;20075;-68
2021/12/08 04:40:10;;;;;;;7.85;1.65;;;;;;;4.52;100.00;99380.38;5210892;28;20037;-68
2021/12/08 04:45:21;;;;;;;9.85;1.83;;;;;;;4.54;100.00;99370.44;5222703;28;20033;-67
2021/12/08 04:48:11;;;;;;;6.78;1.75;;;;;;;4.49;100.00;99372.75;5223170;28;20021;-67
2021/12/08 04:51:11;;;;;;;12.63;1.65;;;;;;;4.54;100.00;99370.44;5223538;28;20021;-67
2021/12/08 04:54:03;;;;;;;12.45;2.20;;;;;;;4.51;100.00;99374.22;5222963;28;20024;-68
2021/12/08 05:07:46;;;;;;;19.65;1.92;;;;;;;4.20;100.00;99389.91;5222672;28;20494;-68
2021/12/08 05:10:24;;;;;;;9.00;1.67;;;;;;;4.21;100.00;99414.63;5222437;28;20033;-68
2021/12/08 05:12:56;;;;;;;11.05;2.00;;;;;;;4.20;100.00;99410.31;5222017;28;20036;-67
2021/12/08 05:15:31;;;;;;;11.48;1.65;;;;;;;4.23;100.00;99420.63;5211803;28;20028;-67
2021/12/08 05:18:10;;;;;;;15.13;1.63;;;;;;;4.20;100.00;99419.13;5222404;28;20482;-67
2021/12/08 05:20:47;;;;;;;6.78;1.35;;;;;;;4.21;100.00;99414.63;5222333;28;20032;-67
2021/12/08 05:23:28;;;;;;;15.15;1.80;;;;;;;4.28;100.00;99411.19;5221834;28;20075;-67
2021/12/08 05:26:07;;;;;;;13.63;1.40;;;;;;;4.27;100.00;99406.88;5222101;28;20036;-67
2021/12/08 05:28:37;;;;;;;17.88;1.75;;;;;;;4.22;100.00;99406.53;5222858;28;20292;-68
2021/12/08 05:31:13;;;;;;;7.28;1.85;;;;;;;4.12;100.00;99427.06;5221045;28;20028;-67
2021/12/08 05:33:46;;;;;;;19.77;2.40;;;;;;;4.05;100.00;99426.84;5212617;28;20523;-68
2021/12/08 05:36:17;;;;;;;13.27;1.63;;;;;;;3.99;100.00;99430.13;5221588;28;20025;-67
2021/12/08 05:38:49;;;;;;;12.52;1.75;;;;;;;4.01;100.00;99440.59;5222278;28;20118;-68
2021/12/08 05:41:30;;;;;;;11.00;1.48;;;;;;;3.97;100.00;99441.91;5221991;28;20443;-68
2021/12/08 05:44:02;;;;;;;11.95;1.60;;;;;;;3.96;100.00;99443.72;5221453;28;20056;-67
2021/12/08 05:46:34;;;;;;;6.95;1.30;;;;;;;3.96;100.00;99440.22;5221559;28;20405;-68
2021/12/08 05:49:05;;;;;;;14.13;1.80;;;;;;;3.83;100.00;99443.31;5221714;28;20021;-67
2021/12/08 05:51:36;;;;;;;9.93;1.40;;;;;;;3.75;100.00;99440.63;5222090;28;20021;-68
2021/12/08 05:54:12;;;;;;;10.93;1.20;;;;;;;3.70;100.00;99451.69;5221201;28;20025;-67
2021/12/08 05:56:44;;;;;;;10.82;2.22;;;;;;;3.72;100.00;99443.59;5221717;28;20070;-67
2021/12/08 05:59:15;;;;;;;13.07;1.63;;;;;;;3.74;100.00;99447.75;5221530;28;20045;-68
2021/12/08 06:01:57;;;;;;;6.07;1.77;;;;;;;3.73;100.00;99447.91;5221292;28;20025;-68
2021/12/08 06:04:30;;;;;;;11.82;1.75;;;;;;;3.69;100.00;99451.84;5221381;28;20054;-67
2021/12/08 06:07:03;;;;;;;6.25;1.20;;;;;;;3.80;100.00;99440.97;5220913;28;20029;-67
2021/12/08 06:09:36;;;;;;;10.38;2.13;;;;;;;3.83;100.00;99445.97;5221728;28;20554;-67
2021/12/08 06:12:08;;;;;;;17.63;2.08;;;;;;;3.85;100.00;99441.34;5221262;28;20086;-67
2021/12/08 06:14:39;;;;;;;10.93;1.58;;;;;;;3.82;100.00;99453.13;5221096;28;20025;-68
2021/12/08 06:17:15;;;;;;;8.02;1.67;;;;;;;3.89;100.00;99453.31;5221435;28;20367;-68
2021/12/08 06:19:47;;;;;;;8.25;1.50;;;;;;;3.92;100.00;99453.00;5221191;28;20024;-67
2021/12/08 06:22:19;;;;;;;9.45;1.40;;;;;;;3.93;100.00;99449.34;5221147;28;20024;-68
2021/12/08 06:24:52;;;;;;;9.25;1.75;;;;;;;3.90;100.00;99453.13;5220063;28;20029;-68
2021/12/08 06:27:22;;;;;;;12.93;1.70;;;;;;;3.89;100.00;99470.06;5221185;28;20333;-67
2021/12/08 06:29:53;;;;;;;8.23;2.05;;;;;;;3.86;100.00;99472.19;5220724;28;20413;-68
2021/12/08 06:32:24;;;;;;;8.25;1.42;;;;;;;3.80;100.00;99468.34;5221049;28;20063;-68
2021/12/08 06:34:58;;;;;;;10.50;1.40;;;;;;;3.74;100.00;99468.97;5220695;28;20392;-68
2021/12/08 06:37:36;;;;;;;6.72;1.42;;;;;;;3.73;100.00;99475.25;5220765;28;20078;-68
2021/12/08 06:40:22;;;;;;;14.25;1.75;;;;;;;3.72;100.00;99465.66;5220857;28;20025;-67
2021/12/08 06:42:56;;;;;;;4.55;1.10;;;;;;;3.78;100.00;99472.97;5220799;28;20021;-68
2021/12/08 06:45:30;;;;;;;10.13;1.75;;;;;;;3.88;100.00;99468.41;5220646;28;20060;-68
2021/12/08 06:48:07;;;;;;;8.18;2.60;;;;;;;3.96;100.00;99475.56;5225257;28;20075;-68
2021/12/08 06:50:42;;;;;;;12.15;1.60;;;;;;;4.03;100.00;99483.75;5224481;28;20497;-68
2021/12/08 06:53:13;;;;;;;12.02;1.20;;;;;;;4.11;100.00;99473.97;5225439;28;20021;-68
2021/12/08 06:55:54;;;;;;;11.52;1.73;;;;;;;4.14;100.00;99475.50;5224617;28;20578;-68
2021/12/08 06:58:32;;;;;;;10.07;1.83;;;;;;;4.34;100.00;99497.34;5225272;28;20086;-68
2021/12/08 07:03:53;;;;;;;7.57;1.45;;;;;;;4.43;100.00;99504.34;5225240;28;20036;-67
2021/12/08 07:06:43;;;;;;;12.65;1.98;;;;;;;4.50;100.00;99509.84;5224927;28;20032;-67
2021/12/08 07:09:22;;;;;;;6.25;1.42;;;;;;;4.51;100.00;99515.00;5213645;28;20430;-68
2021/12/08 07:11:56;;;;;;;26.48;2.78;;;;;;;4.53;100.00;99531.63;5224693;28;20098;-68
2021/12/08 07:14:29;;;;;;;10.27;1.50;;;;;;;4.55;100.00;99520.81;5224213;28;20025;-67
2021/12/08 07:17:03;;;;;;;21.63;2.92;;;;;;;4.60;100.00;99523.81;5224991;28;20041;-68
2021/12/08 07:19:46;;;;;;;7.38;1.27;;;;;;;4.63;100.00;99519.03;5224545;28;20111;-67
2021/12/08 07:22:24;;;;;;;10.23;2.42;;;;;;;4.66;100.00;99531.97;5224743;28;20036;-67
2021/12/08 07:24:59;;;;;;;10.60;2.20;;;;;;;4.71;100.00;99525.34;5224289;28;20075;-68
2021/12/08 07:27:33;;;;;;;4.40;1.20;;;;;;;4.71;100.00;99531.50;5224834;28;20500;-67
2021/12/08 07:30:10;;;;;;;10.15;1.30;;;;;;;4.67;100.00;99548.78;5224361;28;20400;-67
2021/12/08 07:32:41;;;;;;;3.83;1.27;;;;;;;4.63;100.00;99540.28;5224756;28;20021;-67
2021/12/08 07:35:17;;;;;;;6.00;1.52;;;;;;;4.55;100.00;99540.25;5224079;28;20455;-68
2021/12/08 07:37:47;;;;;;;;;;;;;;;4.53;100.00;99536.09;5224743;28;20025;-66
2021/12/08 07:40:23;;;;;;;10.80;1.92;;;;;;;4.51;100.00;99546.84;5224823;28;19916;-66
2021/12/08 07:42:59;;;;;;;8.18;1.83;;;;;;;4.39;100.00;99540.16;5224361;28;20029;-65
2021/12/08 07:45:40;;;;;;;13.13;1.23;;;;;;;4.31;100.00;99554.22;5223875;28;20033;-67
2021/12/08 07:48:15;;;;;;;13.48;2.13;;;;;;;4.34;100.00;99559.22;5224371;28;20075;-67
2021/12/08 07:50:52;;;;;;;3.75;1.45;;;;;;;4.36;100.00;99554.59;5224203;28;20025;-66
2021/12/08 07:53:24;;;;;;;9.38;1.55;;;;;;;4.33;100.00;99554.91;5224073;28;20020;-67
2021/12/08 07:56:02;;;;;;;12.20;1.83;;;;;;;4.37;100.00;99550.13;5223428;28;20044;-66
2021/12/08 07:58:37;;;;;;;4.80;1.00;;;;;;;4.35;100.00;99552.09;5222646;28;20029;-67
2021/12/08 08:01:12;;;;;;;7.50;1.63;;;;;;;4.37;100.00;99558.94;5224859;28;20028;-67
2021/12/08 08:03:43;;;;;;;8.95;1.63;;;;;;;4.39;100.00;99561.41;5223585;28;20021;-66
2021/12/08 08:06:19;;;;;;;6.78;1.38;;;;;;;4.38;100.00;99552.63;5223546;28;20017;-67
2021/12/08 08:08:51;;;;;;;8.60;1.35;;;;;;;4.37;100.00;99564.22;5224169;28;20055;-67
2021/12/08 08:11:27;;;;;;;6.80;1.60;;;;;;;4.36;100.00;99561.72;5223740;28;20017;-66
2021/12/08 08:13:58;;;;;;;11.88;1.63;;;;;;;4.35;100.00;99552.09;5218961;28;20021;-67
2021/12/08 08:16:33;;;;;;;8.38;1.55;;;;;;;4.33;100.00;99552.25;5213769;28;20044;-67
2021/12/08 08:19:11;;;;;;;11.73;1.35;;;;;;;4.27;100.00;99549.41;5211236;28;20051;-68
2021/12/08 08:21:48;;;;;;;5.30;1.13;;;;;;;4.21;100.00;99552.66;5221801;28;20029;-68
2021/12/08 08:24:19;;;;;;;5.70;1.40;;;;;;;4.13;100.00;99545.50;5220874;28;20311;-68
2021/12/08 08:26:54;;;;;;;7.78;1.60;;;;;;;4.11;100.00;99558.09;5222188;28;20006;-67
2021/12/08 08:29:25;;;;;;;8.98;2.22;;;;;;;4.06;100.00;99561.19;5221581;28;20025;-68
2021/12/08 08:32:00;;;;;;;6.72;1.40;;;;;;;4.14;100.00;99571.06;5221961;28;20043;-67
2021/12/08 08:34:36;;;;;;;15.20;1.88;;;;;;;4.61;100.00;99574.13;5219986;28;20070;-68
2021/12/08 08:37:10;;;;;;;8.02;1.40;;;;;;;5.00;100.00;99567.47;5204575;28;20044;-68
2021/12/08 08:39:46;;;;;;;11.48;1.33;;;;;;;5.50;100.00;99567.41;5208280;28;20108;-66
2021/12/08 08:42:22;;;;;;;7.97;1.27;;;;;;;5.81;100.00;99564.94;5208466;28;20034;-67
2021/12/08 08:45:07;;;;;;;14.05;1.85;;;;;;;5.70;100.00;99560.78;5218147;28;20017;-66
2021/12/08 08:47:46;;;;;;;9.45;1.75;;;;;;;5.92;100.00;99571.78;5210425;28;20024;-67
2021/12/08 08:50:25;;;;;;;10.18;2.15;;;;;;;5.94;100.00;99562.63;5219023;28;20033;-66
2021/12/08 08:52:58;;;;;;;16.40;1.70;;;;;;;5.53;100.00;99567.09;5212983;28;20401;-67
2021/12/08 08:55:34;;;;;;;7.05;1.48;;;;;;;5.28;100.00;99563.56;5204064;28;20036;-68
2021/12/08 08:58:08;;;;;;;8.02;1.33;;;;;;;5.10;100.00;99576.97;5203485;28;20056;-67
2021/12/08 09:00:45;;;;;;;10.85;1.27;;;;;;;5.00;100.00;99578.13;5213939;28;20060;-67
2021/12/08 09:03:21;;;;;;;7.13;1.30;;;;;;;5.00;100.00;99581.59;5219645;28;20094;-67
2021/12/08 09:05:56;;;;;;;11.88;2.33;;;;;;;4.97;100.00;99586.41;5220134;28;20533;-67
2021/12/08 09:08:30;;;;;;;11.63;1.48;;;;;;;5.03;100.00;99586.59;5218424;28;20024;-66
2021/12/08 09:11:06;;;;;;;5.50;1.90;;;;;;;5.12;100.00;99592.75;5210978;28;20020;-67
2021/12/08 09:13:43;;;;;;;7.53;1.88;;;;;;;5.39;100.00;99589.84;5216851;28;20063;-66
2021/12/08 09:16:20;;;;;;;3.90;1.48;;;;;;;6.01;100.00;99589.41;5218815;28;20029;-67
2021/12/08 09:19:01;;;;;;;10.70;1.63;;;;;;;6.08;100.00;99582.44;5220867;28;20395;-67
2021/12/08 09:21:38;;;;;;;10.73;1.48;;;;;;;6.02;100.00;99579.59;5219512;28;20021;-69
2021/12/08 09:24:09;;;;;;;4.90;1.30;;;;;;;5.89;100.00;99572.94;5221015;28;20033;-69
2021/12/08 09:26:50;;;;;;;5.82;1.17;;;;;;;5.78;100.00;99581.25;5222131;28;20456;-69
2021/12/08 09:29:27;;;;;;;7.32;1.33;;;;;;;5.54;100.00;99576.75;5220646;28;20013;-69
2021/12/08 09:32:06;;;;;;;5.32;1.77;;;;;;;5.45;100.00;99567.91;5219750;28;20052;-69
2021/12/08 09:34:43;;;;;;;14.63;2.08;;;;;;;5.45;100.00;99581.22;5218167;28;20025;-71
2021/12/08 09:37:17;;;;;;;8.60;1.65;;;;;;;5.56;100.00;99571.25;5219818;28;20021;-70
2021/12/08 09:39:52;;;;;;;6.10;1.15;;;;;;;5.39;100.00;99573.88;5220314;28;20025;-69
2021/12/08 09:42:28;;;;;;;5.72;1.52;;;;;;;5.62;100.00;99576.75;5205618;28;20116;-68
2021/12/08 09:45:18;;;;;;;8.10;1.38;;;;;;;6.02;100.00;99583.06;5208148;28;20027;-68
2021/12/08 09:47:49;;;;;;;7.45;1.50;;;;;;;6.23;100.00;99577.25;5217982;28;20037;-68
2021/12/08 09:50:20;;;;;;;8.32;1.30;;;;;;;6.22;100.00;99565.78;5217862;28;20052;-68
2021/12/08 09:52:50;;;;;;;8.27;1.13;;;;;;;6.26;100.00;99570.75;5218503;28;20481;-68
2021/12/08 09:55:21;;;;;;;130.38;53.88;;;;;;;6.41;100.00;99572.53;5218872;28;20516;-68
2021/12/08 09:57:51;;;;;;;7.78;3.08;;;;;;;6.56;100.00;99585.16;5217422;28;20025;-68
2021/12/08 10:00:27;;;;;;;7.32;1.42;;;;;;;6.32;100.00;99584.19;5203090;28;20446;-68
2021/12/08 10:02:59;;;;;;;;;;;;;;;5.96;100.00;99605.06;5210780;28;20029;-69
2021/12/08 10:05:33;;;;;;;4.60;1.13;;;;;;;5.79;100.00;99593.56;5215966;28;20284;-71
2021/12/08 10:08:04;;;;;;;9.30;1.50;;;;;;;5.87;100.00;99600.69;5219174;28;20028;-69
2021/12/08 10:10:37;;;;;;;6.80;1.05;;;;;;;5.91;100.00;99583.41;5216735;28;20025;-69
2021/12/08 10:13:09;;;;;;;7.03;1.60;;;;;;;5.88;100.00;99581.09;5215204;28;20104;-69
2021/12/08 10:15:40;;;;;;;6.85;1.25;;;;;;;5.77;100.00;99590.19;5217848;28;20029;-71
2021/12/08 10:18:12;;;;;;;6.70;1.42;;;;;;;5.62;100.00;99594.53;5217900;28;20504;-70
2021/12/08 10:20:46;;;;;;;3.70;1.15;;;;;;;5.76;100.00;99590.38;5217239;28;20036;-73
2021/12/08 10:23:22;;;;;;;8.55;1.23;;;;;;;5.78;100.00;99591.06;5212787;28;20710;-69
2021/12/08 10:25:57;;;;;;;4.57;1.17;;;;;;;5.75;100.00;99594.88;5208808;28;20567;-69
2021/12/08 10:28:34;;;;;;;7.15;1.40;;;;;;;5.71;100.00;99597.03;5205870;28;20118;-69
2021/12/08 10:31:11;;;;;;;4.57;1.20;;;;;;;5.72;100.00;99590.72;5214886;28;20024;-70
2021/12/08 10:36:37;;;;;;;8.25;2.45;;;;;;;5.87;100.00;99590.03;5216215;28;20036;-69
2021/12/08 10:39:26;;;;;;;8.63;2.50;;;;;;;5.88;100.00;99589.91;5217664;28;20021;-69
2021/12/08 10:42:07;;;;;;;4.75;1.27;;;;;;;6.28;100.00;99582.06;5209338;28;20075;-69
2021/12/08 10:44:53;;;;;;;10.00;1.52;;;;;;;6.34;100.00;99581.38;5213433;28;20056;-69
2021/12/08 10:47:30;;;;;;;4.25;1.17;;;;;;;6.00;100.00;99581.59;5205343;28;20068;-69
2021/12/08 10:55:40;;;;;;;7.05;1.08;;;;;;;6.10;100.00;99564.44;5213895;28;20545;-69
2021/12/08 10:58:21;;;;;;;11.10;1.70;;;;;;;5.96;100.00;99565.94;5215135;28;20082;-69
2021/12/08 11:00:53;;;;;;;6.97;1.27;;;;;;;6.00;100.00;99584.25;5210278;28;20501;-69
2021/12/08 11:03:29;;;;;;;3.20;0.70;;;;;;;5.76;100.00;99575.25;5212430;28;20025;-69
2021/12/08 11:06:02;;;;;;;5.65;0.80;;;;;;;5.67;100.00;99569.09;5209859;28;20398;-70
2021/12/08 11:08:36;;;;;;;7.25;1.05;;;;;;;5.86;100.00;99561.78;5217723;28;20033;-70
2021/12/08 11:11:20;;;;;;;5.82;1.50;;;;;;;6.11;100.00;99558.13;5216522;28;20412;-70
2021/12/08 11:13:53;;;;;;;6.63;1.20;;;;;;;6.13;100.00;99549.97;5214977;28;20120;-70
2021/12/08 11:16:32;;;;;;;4.45;1.30;;;;;;;6.17;100.00;99559.25;5216966;28;20033;-70
2021/12/08 11:19:10;;;;;;;4.63;1.58;;;;;;;6.26;100.00;99552.09;5217717;28;20060;-70
2021/12/08 11:21:45;;;;;;;8.98;1.42;;;;;;;6.46;100.00;99561.38;5215792;28;20029;-70
2021/12/08 11:24:30;;;;;;;7.57;1.33;;;;;;;6.55;100.00;99563.00;5217696;28;20511;-70
2021/12/08 11:27:08;;;;;;;7.20;1.40;;;;;;;6.55;100.00;99568.34;5205730;28;20027;-70
2021/12/08 11:29:40;;;;;;;4.22;1.00;;;;;;;6.66;100.00;99575.13;5213022;28;20068;-70
2021/12/08 11:32:15;;;;;;;8.02;1.45;;;;;;;6.73;100.00;99574.28;5209251;28;20087;-70
2021/12/08 11:34:47;;;;;;;;;;;;;;;6.70;100.00;99589.78;5218967;28;20696;-70
2021/12/08 11:37:22;;;;;;;7.07;1.17;;;;;;;6.61;100.00;99593.47;5220938;28;19947;-69
2021/12/08 11:39:58;;;;;;;8.00;1.20;;;;;;;6.56;100.00;99585.97;5219509;28;20025;-68
2021/12/08 11:42:34;;;;;;;6.97;1.50;;;;;;;6.53;100.00;99585.53;5220558;28;20028;-68
2021/12/08 11:45:14;;;;;;;4.85;1.38;;;;;;;6.40;100.00;99600.19;5211680;28;20441;-68
2021/12/08 11:47:45;;;;;;;12.73;2.33;;;;;;;6.41;100.00;99591.19;5209179;28;20025;-68
2021/12/08 11:50:21;;;;;;;10.18;1.60;;;;;;;6.31;100.00;99593.19;5219659;28;20545;-68
2021/12/08 11:52:54;;;;;;;3.47;1.27;;;;;;;6.14;100.00;99595.06;5220107;28;20428;-68
2021/12/08 11:55:25;;;;;;;10.60;2.20;;;;;;;6.27;100.00;99607.03;5220251;28;20029;-69
2021/12/08 11:57:58;;;;;;;8.80;2.00;;;;;;;6.39;100.00;99614.50;5221254;28;20112;-70
2021/12/08 12:00:32;;;;;;;8.88;1.52;;;;;;;6.45;100.00;99629.81;5213349;28;20108;-68
2021/12/08 12:03:07;;;;;;;5.23;1.53;;;;;;;6.49;100.00;99636.47;5211210;28;20033;-69
2021/12/08 12:05:40;;;;;;;10.73;1.63;;;;;;;6.35;100.00;99628.34;5220249;28;20628;-68
2021/12/08 12:08:14;;;;;;;5.85;1.42;;;;;;;6.40;100.00;99626.81;5218445;28;20350;-68
2021/12/08 12:10:48;;;;;;;6.07;2.20;;;;;;;6.38;100.00;99626.16;5203978;28;20490;-68
2021/12/08 12:13:19;;;;;;;8.65;1.50;;;;;;;6.23;100.00;99631.34;5209957;28;20037;-69
2021/12/08 12:15:50;;;;;;;11.35;1.60;;;;;;;6.28;100.00;99617.53;5220155;28;20036;-68
2021/12/08 12:18:22;;;;;;;11.85;3.90;;;;;;;6.25;100.00;99631.16;5220471;28;20040;-68
2021/12/08 12:21:13;;;;;;;7.22;2.35;;;;;;;6.24;100.00;99637.50;5220324;28;20029;-69
2021/12/08 12:24:01;;;;;;;10.43;2.15;;;;;;;6.32;100.00;99631.31;5220929;28;20054;-68
2021/12/08 12:27:00;;;;;;;7.60;1.75;;;;;;;6.25;100.00;99643.66;5220402;28;20454;-68
2021/12/08 12:29:52;;;;;;;7.50;1.80;;;;;;;6.04;100.00;99647.66;5219282;28;20056;-67
2021/12/08 12:32:28;;;;;;;7.32;1.30;;;;;;;5.95;100.00;99652.13;5220391;28;20480;-68
2021/12/08 12:35:12;;;;;;;9.77;2.22;;;;;;;5.92;100.00;99660.47;5219001;28;20033;-69
2021/12/08 12:37:43;;;;;;;5.03;1.48;;;;;;;6.09;100.00;99660.47;5218252;28;20036;-71
2021/12/08 12:40:18;;;;;;;8.10;1.73;;;;;;;6.16;100.00;99662.28;5202907;28;20029;-69
2021/12/08 12:42:54;;;;;;;6.85;1.70;;;;;;;6.42;100.00;99659.44;5214060;28;20128;-69
2021/12/08 12:45:33;;;;;;;8.63;1.90;;;;;;;6.55;100.00;99663.44;5219393;28;20400;-69
2021/12/08 12:48:13;;;;;;;8.50;1.60;;;;;;;6.58;100.00;99647.13;5207563;28;20029;-76
2021/12/08 12:50:55;;;;;;;5.72;1.88;;;;;;;6.67;100.00;99652.25;5217364;28;20115;-69